sensor_id;sensor_type;location;lat;lon;timestamp;temperature;humidity
19928;DHT22;10126;50.876;4.470;2022-09-03T00:00:55;21.10;99.90
19928;DHT22;10126;50.876;4.470;2022-09-03T00:03:03;21.20;99.90
19928;DHT22;10126;50.876;4.470;2022-09-03T00:05:22;21.30;99.90
19928;DHT22;10126;50.876;4.470;2022-09-03T00:07:38;21.40;99.90
19928;DHT22;10126;50.876;4.470;2022-09-03T00:09:49;21.30;99.90
19928;DHT22;10126;50.876;4.470;2022-09-03T00:12:10;21.30;99.90
19928;DHT22;10126;50.876;4.470;2022-09-03T00:14:15;21.40;99.90
19928;DHT22;10126;50.876;4.470;2022-09-03T00:16:21;21.50;99.90
19928;DHT22;10126;50.876;4.470;2022-09-03T00:18:26;21.40;99.90
19928;DHT22;10126;50.876;4.470;2022-09-03T00:21:05;21.40;99.90
19928;DHT22;10126;50.876;4.470;2022-09-03T00:23:28;21.50;99.90
19928;DHT22;10126;50.876;4.470;2022-09-03T00:25:37;21.50;99.90
19928;DHT22;10126;50.876;4.470;2022-09-03T00:27:40;21.50;99.90
19928;DHT22;10126;50.876;4.470;2022-09-03T00:29:58;21.50;99.90
19928;DHT22;10126;50.876;4.470;2022-09-03T00:32:06;21.40;99.90
19928;DHT22;10126;50.876;4.470;2022-09-03T00:36:35;21.40;99.90
19928;DHT22;10126;50.876;4.470;2022-09-03T00:38:37;21.40;99.90
19928;DHT22;10126;50.876;4.470;2022-09-03T00:43:01;21.30;99.90
19928;DHT22;10126;50.876;4.470;2022-09-03T00:45:34;21.40;99.90
19928;DHT22;10126;50.876;4.470;2022-09-03T00:47:53;21.50;99.90
19928;DHT22;10126;50.876;4.470;2022-09-03T00:49:58;21.50;99.90
19928;DHT22;10126;50.876;4.470;2022-09-03T00:59:53;21.40;99.90
19928;DHT22;10126;50.876;4.470;2022-09-03T01:05:05;21.30;99.90
19928;DHT22;10126;50.876;4.470;2022-09-03T01:11:55;21.20;99.90
19928;DHT22;10126;50.876;4.470;2022-09-03T01:18:47;20.90;99.90
19928;DHT22;10126;50.876;4.470;2022-09-03T01:21:07;20.90;99.90
19928;DHT22;10126;50.876;4.470;2022-09-03T01:23:37;21.00;99.90
19928;DHT22;10126;50.876;4.470;2022-09-03T01:30:28;21.10;99.90
19928;DHT22;10126;50.876;4.470;2022-09-03T01:37:31;21.00;99.90
19928;DHT22;10126;50.876;4.470;2022-09-03T01:42:41;21.00;99.90
19928;DHT22;10126;50.876;4.470;2022-09-03T01:47:03;21.00;99.90
19928;DHT22;10126;50.876;4.470;2022-09-03T01:49:25;21.00;99.90
19928;DHT22;10126;50.876;4.470;2022-09-03T01:51:29;20.90;99.90
19928;DHT22;10126;50.876;4.470;2022-09-03T01:53:54;20.90;99.90
19928;DHT22;10126;50.876;4.470;2022-09-03T01:58:20;21.00;99.90
19928;DHT22;10126;50.876;4.470;2022-09-03T02:00:24;21.00;99.90
19928;DHT22;10126;50.876;4.470;2022-09-03T02:02:27;21.00;99.90
19928;DHT22;10126;50.876;4.470;2022-09-03T02:04:27;20.90;99.90
19928;DHT22;10126;50.876;4.470;2022-09-03T02:06:29;20.90;99.90
19928;DHT22;10126;50.876;4.470;2022-09-03T02:08:33;21.00;99.90
19928;DHT22;10126;50.876;4.470;2022-09-03T02:10:44;21.10;99.90
19928;DHT22;10126;50.876;4.470;2022-09-03T02:12:53;21.20;99.90
19928;DHT22;10126;50.876;4.470;2022-09-03T02:14:56;21.20;99.90
19928;DHT22;10126;50.876;4.470;2022-09-03T02:16:57;21.10;99.90
19928;DHT22;10126;50.876;4.470;2022-09-03T02:19:02;21.00;99.90
19928;DHT22;10126;50.876;4.470;2022-09-03T02:21:04;21.10;99.90
19928;DHT22;10126;50.876;4.470;2022-09-03T02:23:05;21.20;99.90
19928;DHT22;10126;50.876;4.470;2022-09-03T02:25:06;21.20;99.90
19928;DHT22;10126;50.876;4.470;2022-09-03T02:27:07;21.20;99.90
19928;DHT22;10126;50.876;4.470;2022-09-03T02:29:09;21.30;99.90
19928;DHT22;10126;50.876;4.470;2022-09-03T02:31:10;21.20;99.90
19928;DHT22;10126;50.876;4.470;2022-09-03T02:33:10;21.10;99.90
19928;DHT22;10126;50.876;4.470;2022-09-03T02:35:12;21.10;99.90
19928;DHT22;10126;50.876;4.470;2022-09-03T02:37:17;21.10;99.90
19928;DHT22;10126;50.876;4.470;2022-09-03T02:39:18;21.20;99.90
19928;DHT22;10126;50.876;4.470;2022-09-03T02:41:19;21.10;99.90
19928;DHT22;10126;50.876;4.470;2022-09-03T02:43:41;21.10;99.90
19928;DHT22;10126;50.876;4.470;2022-09-03T02:45:46;21.20;99.90
19928;DHT22;10126;50.876;4.470;2022-09-03T02:47:50;21.10;99.90
19928;DHT22;10126;50.876;4.470;2022-09-03T02:49:52;21.00;99.90
19928;DHT22;10126;50.876;4.470;2022-09-03T02:52:00;20.90;99.90
19928;DHT22;10126;50.876;4.470;2022-09-03T02:54:01;20.70;99.90
19928;DHT22;10126;50.876;4.470;2022-09-03T02:56:02;20.70;99.90
19928;DHT22;10126;50.876;4.470;2022-09-03T02:58:03;20.70;99.90
19928;DHT22;10126;50.876;4.470;2022-09-03T03:00:06;20.80;99.90
19928;DHT22;10126;50.876;4.470;2022-09-03T03:02:07;20.80;99.90
19928;DHT22;10126;50.876;4.470;2022-09-03T03:04:08;21.00;99.90
19928;DHT22;10126;50.876;4.470;2022-09-03T03:06:09;21.00;99.90
19928;DHT22;10126;50.876;4.470;2022-09-03T03:08:10;20.80;99.90
19928;DHT22;10126;50.876;4.470;2022-09-03T03:10:14;20.60;99.90
19928;DHT22;10126;50.876;4.470;2022-09-03T03:12:14;20.60;99.90
19928;DHT22;10126;50.876;4.470;2022-09-03T03:14:17;20.60;99.90
19928;DHT22;10126;50.876;4.470;2022-09-03T03:16:18;20.60;99.90
19928;DHT22;10126;50.876;4.470;2022-09-03T03:18:18;20.60;99.90
19928;DHT22;10126;50.876;4.470;2022-09-03T03:20:19;20.60;99.90
19928;DHT22;10126;50.876;4.470;2022-09-03T03:22:20;20.60;99.90
19928;DHT22;10126;50.876;4.470;2022-09-03T03:24:21;20.60;99.90
19928;DHT22;10126;50.876;4.470;2022-09-03T03:26:21;20.60;99.90
19928;DHT22;10126;50.876;4.470;2022-09-03T03:28:23;20.60;99.90
19928;DHT22;10126;50.876;4.470;2022-09-03T03:30:24;20.60;99.90
19928;DHT22;10126;50.876;4.470;2022-09-03T03:32:25;20.60;99.90
19928;DHT22;10126;50.876;4.470;2022-09-03T03:34:26;20.70;99.90
19928;DHT22;10126;50.876;4.470;2022-09-03T03:36:31;20.70;99.90
19928;DHT22;10126;50.876;4.470;2022-09-03T03:38:32;20.80;99.90
19928;DHT22;10126;50.876;4.470;2022-09-03T03:40:33;20.80;99.90
19928;DHT22;10126;50.876;4.470;2022-09-03T03:42:34;20.60;99.90
19928;DHT22;10126;50.876;4.470;2022-09-03T03:44:34;20.50;99.90
19928;DHT22;10126;50.876;4.470;2022-09-03T03:46:37;20.40;99.90
19928;DHT22;10126;50.876;4.470;2022-09-03T03:48:38;20.40;99.90
19928;DHT22;10126;50.876;4.470;2022-09-03T03:50:39;20.50;99.90
19928;DHT22;10126;50.876;4.470;2022-09-03T03:52:39;20.40;99.90
19928;DHT22;10126;50.876;4.470;2022-09-03T03:54:40;20.30;99.90
19928;DHT22;10126;50.876;4.470;2022-09-03T03:56:40;20.50;99.90
19928;DHT22;10126;50.876;4.470;2022-09-03T03:58:41;20.50;99.90
19928;DHT22;10126;50.876;4.470;2022-09-03T04:00:42;20.60;99.90
19928;DHT22;10126;50.876;4.470;2022-09-03T04:02:43;20.60;99.90
19928;DHT22;10126;50.876;4.470;2022-09-03T04:04:44;20.50;99.90
19928;DHT22;10126;50.876;4.470;2022-09-03T04:06:44;20.60;99.90
19928;DHT22;10126;50.876;4.470;2022-09-03T04:08:46;20.60;99.90
19928;DHT22;10126;50.876;4.470;2022-09-03T04:10:48;20.60;99.90
19928;DHT22;10126;50.876;4.470;2022-09-03T04:12:48;20.50;99.90
19928;DHT22;10126;50.876;4.470;2022-09-03T04:14:53;20.50;99.90
19928;DHT22;10126;50.876;4.470;2022-09-03T04:16:53;20.60;99.90
19928;DHT22;10126;50.876;4.470;2022-09-03T04:18:55;20.30;99.90
19928;DHT22;10126;50.876;4.470;2022-09-03T04:21:07;20.20;99.90
19928;DHT22;10126;50.876;4.470;2022-09-03T04:23:08;20.20;99.90
19928;DHT22;10126;50.876;4.470;2022-09-03T04:25:08;20.10;99.90
19928;DHT22;10126;50.876;4.470;2022-09-03T04:27:09;20.00;99.90
19928;DHT22;10126;50.876;4.470;2022-09-03T04:29:10;20.10;99.90
19928;DHT22;10126;50.876;4.470;2022-09-03T04:31:12;20.00;99.90
19928;DHT22;10126;50.876;4.470;2022-09-03T04:33:13;19.90;99.90
19928;DHT22;10126;50.876;4.470;2022-09-03T04:35:14;19.90;99.90
19928;DHT22;10126;50.876;4.470;2022-09-03T04:37:15;20.10;99.90
19928;DHT22;10126;50.876;4.470;2022-09-03T04:39:19;20.10;99.90
19928;DHT22;10126;50.876;4.470;2022-09-03T04:41:25;20.00;99.90
19928;DHT22;10126;50.876;4.470;2022-09-03T04:43:26;20.00;99.90
19928;DHT22;10126;50.876;4.470;2022-09-03T04:45:28;20.10;99.90
19928;DHT22;10126;50.876;4.470;2022-09-03T04:47:28;20.10;99.90
19928;DHT22;10126;50.876;4.470;2022-09-03T04:49:29;20.10;99.90
19928;DHT22;10126;50.876;4.470;2022-09-03T04:51:30;20.00;99.90
19928;DHT22;10126;50.876;4.470;2022-09-03T04:53:35;20.00;99.90
19928;DHT22;10126;50.876;4.470;2022-09-03T04:55:37;19.90;99.90
19928;DHT22;10126;50.876;4.470;2022-09-03T04:57:37;20.00;99.90
19928;DHT22;10126;50.876;4.470;2022-09-03T04:59:38;19.80;99.90
19928;DHT22;10126;50.876;4.470;2022-09-03T05:01:42;19.80;99.90
19928;DHT22;10126;50.876;4.470;2022-09-03T05:03:43;19.90;99.90
19928;DHT22;10126;50.876;4.470;2022-09-03T05:05:52;19.90;99.90
19928;DHT22;10126;50.876;4.470;2022-09-03T05:07:56;19.70;99.90
19928;DHT22;10126;50.876;4.470;2022-09-03T05:09:57;19.60;99.90
19928;DHT22;10126;50.876;4.470;2022-09-03T05:11:57;19.70;99.90
19928;DHT22;10126;50.876;4.470;2022-09-03T05:13:59;19.70;99.90
19928;DHT22;10126;50.876;4.470;2022-09-03T05:16:04;19.70;99.90
19928;DHT22;10126;50.876;4.470;2022-09-03T05:18:05;19.90;99.90
19928;DHT22;10126;50.876;4.470;2022-09-03T05:20:06;19.90;99.90
19928;DHT22;10126;50.876;4.470;2022-09-03T05:22:07;19.90;99.90
19928;DHT22;10126;50.876;4.470;2022-09-03T05:24:08;20.00;99.90
19928;DHT22;10126;50.876;4.470;2022-09-03T05:26:13;20.00;99.90
19928;DHT22;10126;50.876;4.470;2022-09-03T05:28:14;20.00;99.90
19928;DHT22;10126;50.876;4.470;2022-09-03T05:30:15;19.90;99.90
19928;DHT22;10126;50.876;4.470;2022-09-03T05:32:16;19.80;99.90
19928;DHT22;10126;50.876;4.470;2022-09-03T05:34:16;19.80;99.90
19928;DHT22;10126;50.876;4.470;2022-09-03T05:36:21;19.70;99.90
19928;DHT22;10126;50.876;4.470;2022-09-03T05:38:23;19.60;99.90
19928;DHT22;10126;50.876;4.470;2022-09-03T05:40:23;19.60;99.90
19928;DHT22;10126;50.876;4.470;2022-09-03T05:42:24;19.70;99.90
19928;DHT22;10126;50.876;4.470;2022-09-03T05:44:26;19.50;99.90
19928;DHT22;10126;50.876;4.470;2022-09-03T05:46:29;19.50;99.90
19928;DHT22;10126;50.876;4.470;2022-09-03T05:48:34;19.40;99.90
19928;DHT22;10126;50.876;4.470;2022-09-03T05:50:35;19.40;99.90
19928;DHT22;10126;50.876;4.470;2022-09-03T05:52:36;19.40;99.90
19928;DHT22;10126;50.876;4.470;2022-09-03T05:54:37;19.40;99.90
19928;DHT22;10126;50.876;4.470;2022-09-03T05:56:39;19.30;99.90
19928;DHT22;10126;50.876;4.470;2022-09-03T05:58:43;19.40;99.90
19928;DHT22;10126;50.876;4.470;2022-09-03T06:00:44;19.40;99.90
19928;DHT22;10126;50.876;4.470;2022-09-03T06:02:54;19.60;99.90
19928;DHT22;10126;50.876;4.470;2022-09-03T06:04:54;19.80;99.90
19928;DHT22;10126;50.876;4.470;2022-09-03T06:06:57;19.60;99.90
19928;DHT22;10126;50.876;4.470;2022-09-03T06:09:05;19.70;99.90
19928;DHT22;10126;50.876;4.470;2022-09-03T06:11:07;19.60;99.90
19928;DHT22;10126;50.876;4.470;2022-09-03T06:13:07;19.70;99.90
19928;DHT22;10126;50.876;4.470;2022-09-03T06:15:08;19.90;99.90
19928;DHT22;10126;50.876;4.470;2022-09-03T06:17:09;20.00;99.90
19928;DHT22;10126;50.876;4.470;2022-09-03T06:19:12;20.00;99.90
19928;DHT22;10126;50.876;4.470;2022-09-03T06:21:14;20.10;99.90
19928;DHT22;10126;50.876;4.470;2022-09-03T06:23:15;20.10;99.90
19928;DHT22;10126;50.876;4.470;2022-09-03T06:25:15;20.20;99.90
19928;DHT22;10126;50.876;4.470;2022-09-03T06:27:16;20.20;99.90
19928;DHT22;10126;50.876;4.470;2022-09-03T06:29:17;20.20;99.90
19928;DHT22;10126;50.876;4.470;2022-09-03T06:31:21;20.30;99.90
19928;DHT22;10126;50.876;4.470;2022-09-03T06:33:22;20.40;99.90
19928;DHT22;10126;50.876;4.470;2022-09-03T06:35:24;20.30;99.90
19928;DHT22;10126;50.876;4.470;2022-09-03T06:37:25;20.30;99.90
19928;DHT22;10126;50.876;4.470;2022-09-03T06:39:25;20.30;99.90
19928;DHT22;10126;50.876;4.470;2022-09-03T06:41:29;20.30;99.90
19928;DHT22;10126;50.876;4.470;2022-09-03T06:43:39;20.40;99.90
19928;DHT22;10126;50.876;4.470;2022-09-03T06:45:40;20.50;99.90
19928;DHT22;10126;50.876;4.470;2022-09-03T06:47:41;20.60;99.90
19928;DHT22;10126;50.876;4.470;2022-09-03T06:49:41;20.70;99.90
19928;DHT22;10126;50.876;4.470;2022-09-03T06:51:43;20.80;99.90
19928;DHT22;10126;50.876;4.470;2022-09-03T06:53:50;20.80;99.90
19928;DHT22;10126;50.876;4.470;2022-09-03T06:55:56;20.90;99.90
19928;DHT22;10126;50.876;4.470;2022-09-03T06:57:56;21.00;99.90
19928;DHT22;10126;50.876;4.470;2022-09-03T06:59:57;21.10;99.90
19928;DHT22;10126;50.876;4.470;2022-09-03T07:01:58;21.20;99.90
19928;DHT22;10126;50.876;4.470;2022-09-03T07:04:04;21.20;99.90
19928;DHT22;10126;50.876;4.470;2022-09-03T07:06:16;21.00;99.90
19928;DHT22;10126;50.876;4.470;2022-09-03T07:08:17;21.00;99.90
19928;DHT22;10126;50.876;4.470;2022-09-03T07:10:17;21.20;99.90
19928;DHT22;10126;50.876;4.470;2022-09-03T07:12:20;21.20;99.90
19928;DHT22;10126;50.876;4.470;2022-09-03T07:14:21;21.40;99.90
19928;DHT22;10126;50.876;4.470;2022-09-03T07:16:24;21.50;99.90
19928;DHT22;10126;50.876;4.470;2022-09-03T07:18:25;21.60;99.90
19928;DHT22;10126;50.876;4.470;2022-09-03T07:20:26;21.50;99.90
19928;DHT22;10126;50.876;4.470;2022-09-03T07:22:26;21.60;99.90
19928;DHT22;10126;50.876;4.470;2022-09-03T07:24:27;21.70;99.90
19928;DHT22;10126;50.876;4.470;2022-09-03T07:26:30;21.80;99.90
19928;DHT22;10126;50.876;4.470;2022-09-03T07:28:33;21.90;99.90
19928;DHT22;10126;50.876;4.470;2022-09-03T07:30:34;22.00;99.90
19928;DHT22;10126;50.876;4.470;2022-09-03T07:32:35;22.30;99.90
19928;DHT22;10126;50.876;4.470;2022-09-03T07:34:40;22.40;99.90
19928;DHT22;10126;50.876;4.470;2022-09-03T07:36:45;22.70;99.90
19928;DHT22;10126;50.876;4.470;2022-09-03T07:38:46;22.90;99.90
19928;DHT22;10126;50.876;4.470;2022-09-03T07:40:47;23.10;99.90
19928;DHT22;10126;50.876;4.470;2022-09-03T07:42:47;23.30;99.90
19928;DHT22;10126;50.876;4.470;2022-09-03T07:44:48;23.70;99.90
19928;DHT22;10126;50.876;4.470;2022-09-03T07:46:49;24.00;99.90
19928;DHT22;10126;50.876;4.470;2022-09-03T07:48:51;24.30;99.90
19928;DHT22;10126;50.876;4.470;2022-09-03T07:50:56;25.00;99.90
19928;DHT22;10126;50.876;4.470;2022-09-03T07:52:59;25.60;99.90
19928;DHT22;10126;50.876;4.470;2022-09-03T07:54:59;26.30;99.90
19928;DHT22;10126;50.876;4.470;2022-09-03T07:57:02;27.00;99.90
19928;DHT22;10126;50.876;4.470;2022-09-03T07:59:03;27.80;99.90
19928;DHT22;10126;50.876;4.470;2022-09-03T08:01:24;27.90;99.90
19928;DHT22;10126;50.876;4.470;2022-09-03T08:03:25;27.90;99.90
19928;DHT22;10126;50.876;4.470;2022-09-03T08:05:25;27.90;99.90
19928;DHT22;10126;50.876;4.470;2022-09-03T08:07:28;28.30;99.90
19928;DHT22;10126;50.876;4.470;2022-09-03T08:09:29;28.40;99.90
19928;DHT22;10126;50.876;4.470;2022-09-03T08:11:35;28.50;99.90
19928;DHT22;10126;50.876;4.470;2022-09-03T08:13:38;28.20;99.90
19928;DHT22;10126;50.876;4.470;2022-09-03T08:15:40;27.80;99.90
19928;DHT22;10126;50.876;4.470;2022-09-03T08:17:44;27.70;99.90
19928;DHT22;10126;50.876;4.470;2022-09-03T08:19:45;27.80;99.90
19928;DHT22;10126;50.876;4.470;2022-09-03T08:21:46;27.80;99.90
19928;DHT22;10126;50.876;4.470;2022-09-03T08:23:48;27.80;99.90
19928;DHT22;10126;50.876;4.470;2022-09-03T08:25:59;27.80;99.90
19928;DHT22;10126;50.876;4.470;2022-09-03T08:28:00;27.70;99.90
19928;DHT22;10126;50.876;4.470;2022-09-03T08:30:01;27.60;99.90
19928;DHT22;10126;50.876;4.470;2022-09-03T08:32:03;27.70;99.90
19928;DHT22;10126;50.876;4.470;2022-09-03T08:34:06;27.70;99.90
19928;DHT22;10126;50.876;4.470;2022-09-03T08:38:09;28.00;99.90
19928;DHT22;10126;50.876;4.470;2022-09-03T08:40:09;28.10;99.90
19928;DHT22;10126;50.876;4.470;2022-09-03T08:44:49;28.80;99.90
19928;DHT22;10126;50.876;4.470;2022-09-03T08:49:10;29.50;99.90
19928;DHT22;10126;50.876;4.470;2022-09-03T08:51:12;30.00;99.90
19928;DHT22;10126;50.876;4.470;2022-09-03T08:53:46;30.20;99.90
19928;DHT22;10126;50.876;4.470;2022-09-03T08:56:06;30.90;99.90
19928;DHT22;10126;50.876;4.470;2022-09-03T08:58:14;31.60;99.90
19928;DHT22;10126;50.876;4.470;2022-09-03T09:00:16;31.00;99.90
19928;DHT22;10126;50.876;4.470;2022-09-03T09:02:30;30.60;99.90
19928;DHT22;10126;50.876;4.470;2022-09-03T09:04:47;30.10;99.90
19928;DHT22;10126;50.876;4.470;2022-09-03T09:06:57;29.60;99.90
19928;DHT22;10126;50.876;4.470;2022-09-03T09:09:10;29.30;99.90
19928;DHT22;10126;50.876;4.470;2022-09-03T09:13:17;28.40;99.90
19928;DHT22;10126;50.876;4.470;2022-09-03T09:15:58;28.10;99.90
19928;DHT22;10126;50.876;4.470;2022-09-03T09:20:33;28.40;99.90
19928;DHT22;10126;50.876;4.470;2022-09-03T09:22:44;28.30;99.90
19928;DHT22;10126;50.876;4.470;2022-09-03T09:24:47;27.90;99.90
19928;DHT22;10126;50.876;4.470;2022-09-03T09:27:00;28.10;99.90
19928;DHT22;10126;50.876;4.470;2022-09-03T09:29:06;28.50;99.90
19928;DHT22;10126;50.876;4.470;2022-09-03T09:31:12;29.10;99.90
19928;DHT22;10126;50.876;4.470;2022-09-03T09:33:16;30.00;99.90
19928;DHT22;10126;50.876;4.470;2022-09-03T09:35:17;30.20;99.90
19928;DHT22;10126;50.876;4.470;2022-09-03T09:37:19;30.70;99.90
19928;DHT22;10126;50.876;4.470;2022-09-03T09:39:20;31.20;99.90
19928;DHT22;10126;50.876;4.470;2022-09-03T09:41:21;31.70;99.90
19928;DHT22;10126;50.876;4.470;2022-09-03T09:43:24;32.30;99.90
19928;DHT22;10126;50.876;4.470;2022-09-03T09:45:24;32.20;99.90
19928;DHT22;10126;50.876;4.470;2022-09-03T09:47:29;32.50;99.90
19928;DHT22;10126;50.876;4.470;2022-09-03T09:49:35;34.10;99.90
19928;DHT22;10126;50.876;4.470;2022-09-03T09:51:37;34.60;99.90
19928;DHT22;10126;50.876;4.470;2022-09-03T09:53:39;35.30;99.90
19928;DHT22;10126;50.876;4.470;2022-09-03T09:55:50;36.00;99.90
19928;DHT22;10126;50.876;4.470;2022-09-03T09:58:07;36.90;99.70
19928;DHT22;10126;50.876;4.470;2022-09-03T10:00:13;36.80;98.80
19928;DHT22;10126;50.876;4.470;2022-09-03T10:02:24;37.30;97.20
19928;DHT22;10126;50.876;4.470;2022-09-03T10:04:31;36.50;96.90
19928;DHT22;10126;50.876;4.470;2022-09-03T10:06:31;36.10;98.00
19928;DHT22;10126;50.876;4.470;2022-09-03T10:08:52;35.00;97.50
19928;DHT22;10126;50.876;4.470;2022-09-03T10:10:53;33.80;99.90
19928;DHT22;10126;50.876;4.470;2022-09-03T10:13:08;32.50;99.90
19928;DHT22;10126;50.876;4.470;2022-09-03T10:17:30;29.90;99.90
19928;DHT22;10126;50.876;4.470;2022-09-03T10:22:24;28.80;99.90
19928;DHT22;10126;50.876;4.470;2022-09-03T10:26:29;28.80;99.90
19928;DHT22;10126;50.876;4.470;2022-09-03T10:28:30;28.70;99.90
19928;DHT22;10126;50.876;4.470;2022-09-03T10:33:14;28.70;99.90
19928;DHT22;10126;50.876;4.470;2022-09-03T10:35:22;28.40;99.90
19928;DHT22;10126;50.876;4.470;2022-09-03T10:37:37;28.50;99.90
19928;DHT22;10126;50.876;4.470;2022-09-03T10:42:34;28.20;99.90
19928;DHT22;10126;50.876;4.470;2022-09-03T10:49:30;27.40;99.90
19928;DHT22;10126;50.876;4.470;2022-09-03T10:51:35;27.10;99.90
19928;DHT22;10126;50.876;4.470;2022-09-03T10:56:13;27.60;99.90
19928;DHT22;10126;50.876;4.470;2022-09-03T11:00:40;27.90;99.90
19928;DHT22;10126;50.876;4.470;2022-09-03T11:03:04;28.20;99.90
19928;DHT22;10126;50.876;4.470;2022-09-03T11:05:38;28.40;99.90
19928;DHT22;10126;50.876;4.470;2022-09-03T11:07:51;28.70;99.90
19928;DHT22;10126;50.876;4.470;2022-09-03T11:10:05;29.10;99.90
19928;DHT22;10126;50.876;4.470;2022-09-03T11:12:28;29.10;99.90
19928;DHT22;10126;50.876;4.470;2022-09-03T11:14:41;29.00;99.90
19928;DHT22;10126;50.876;4.470;2022-09-03T11:16:45;29.20;99.90
19928;DHT22;10126;50.876;4.470;2022-09-03T11:19:08;29.30;99.90
19928;DHT22;10126;50.876;4.470;2022-09-03T11:21:19;29.20;99.90
19928;DHT22;10126;50.876;4.470;2022-09-03T11:23:23;29.10;99.90
19928;DHT22;10126;50.876;4.470;2022-09-03T11:25:33;29.10;99.90
19928;DHT22;10126;50.876;4.470;2022-09-03T11:32:23;28.90;99.90
19928;DHT22;10126;50.876;4.470;2022-09-03T11:34:31;29.00;99.90
19928;DHT22;10126;50.876;4.470;2022-09-03T11:36:36;28.70;99.90
19928;DHT22;10126;50.876;4.470;2022-09-03T11:38:38;28.40;99.90
19928;DHT22;10126;50.876;4.470;2022-09-03T11:40:42;28.40;99.90
19928;DHT22;10126;50.876;4.470;2022-09-03T11:43:50;28.20;99.90
19928;DHT22;10126;50.876;4.470;2022-09-03T11:47:41;27.80;99.90
19928;DHT22;10126;50.876;4.470;2022-09-03T11:49:47;28.10;99.90
19928;DHT22;10126;50.876;4.470;2022-09-03T11:52:01;28.10;99.90
19928;DHT22;10126;50.876;4.470;2022-09-03T11:54:05;28.30;99.90
19928;DHT22;10126;50.876;4.470;2022-09-03T11:58:16;28.70;99.90
19928;DHT22;10126;50.876;4.470;2022-09-03T12:00:20;28.90;99.90
19928;DHT22;10126;50.876;4.470;2022-09-03T12:02:30;28.60;99.90
19928;DHT22;10126;50.876;4.470;2022-09-03T12:09:53;27.60;99.90
19928;DHT22;10126;50.876;4.470;2022-09-03T12:14:11;27.90;99.90
19928;DHT22;10126;50.876;4.470;2022-09-03T12:18:29;28.30;99.90
19928;DHT22;10126;50.876;4.470;2022-09-03T12:20:30;28.60;99.90
19928;DHT22;10126;50.876;4.470;2022-09-03T12:22:35;28.70;99.90
19928;DHT22;10126;50.876;4.470;2022-09-03T12:24:37;28.60;99.90
19928;DHT22;10126;50.876;4.470;2022-09-03T12:26:41;28.50;99.90
19928;DHT22;10126;50.876;4.470;2022-09-03T12:28:45;28.60;99.90
19928;DHT22;10126;50.876;4.470;2022-09-03T12:30:46;28.80;99.90
19928;DHT22;10126;50.876;4.470;2022-09-03T12:32:47;28.90;99.90
19928;DHT22;10126;50.876;4.470;2022-09-03T12:34:48;29.10;99.90
19928;DHT22;10126;50.876;4.470;2022-09-03T12:36:52;29.20;99.90
19928;DHT22;10126;50.876;4.470;2022-09-03T12:38:52;29.20;99.90
19928;DHT22;10126;50.876;4.470;2022-09-03T12:40:53;29.40;99.90
19928;DHT22;10126;50.876;4.470;2022-09-03T12:42:54;29.60;99.90
19928;DHT22;10126;50.876;4.470;2022-09-03T12:45:04;29.90;99.90
19928;DHT22;10126;50.876;4.470;2022-09-03T12:47:17;29.80;99.90
19928;DHT22;10126;50.876;4.470;2022-09-03T12:49:18;30.00;99.90
19928;DHT22;10126;50.876;4.470;2022-09-03T12:51:20;30.00;99.90
19928;DHT22;10126;50.876;4.470;2022-09-03T12:53:24;30.00;99.90
19928;DHT22;10126;50.876;4.470;2022-09-03T12:58:06;30.20;99.90
19928;DHT22;10126;50.876;4.470;2022-09-03T13:00:13;30.20;99.90
19928;DHT22;10126;50.876;4.470;2022-09-03T13:02:25;30.10;99.90
19928;DHT22;10126;50.876;4.470;2022-09-03T13:04:31;30.20;99.90
19928;DHT22;10126;50.876;4.470;2022-09-03T13:06:49;30.40;99.90
19928;DHT22;10126;50.876;4.470;2022-09-03T13:08:59;30.50;99.90
19928;DHT22;10126;50.876;4.470;2022-09-03T13:11:02;30.80;99.90
19928;DHT22;10126;50.876;4.470;2022-09-03T13:13:26;30.60;99.90
19928;DHT22;10126;50.876;4.470;2022-09-03T13:15:28;30.50;99.90
19928;DHT22;10126;50.876;4.470;2022-09-03T13:20:16;30.20;99.90
19928;DHT22;10126;50.876;4.470;2022-09-03T13:25:24;30.20;99.90
19928;DHT22;10126;50.876;4.470;2022-09-03T13:30:16;29.10;99.90
19928;DHT22;10126;50.876;4.470;2022-09-03T13:34:41;30.00;99.90
19928;DHT22;10126;50.876;4.470;2022-09-03T13:38:53;30.80;99.90
19928;DHT22;10126;50.876;4.470;2022-09-03T13:41:15;30.90;99.90
19928;DHT22;10126;50.876;4.470;2022-09-03T13:43:26;31.00;99.90
19928;DHT22;10126;50.876;4.470;2022-09-03T13:45:49;30.80;99.90
19928;DHT22;10126;50.876;4.470;2022-09-03T13:48:11;30.80;99.90
19928;DHT22;10126;50.876;4.470;2022-09-03T13:50:42;30.40;99.90
19928;DHT22;10126;50.876;4.470;2022-09-03T13:54:57;30.60;99.90
19928;DHT22;10126;50.876;4.470;2022-09-03T13:57:04;30.60;99.90
19928;DHT22;10126;50.876;4.470;2022-09-03T14:04:01;30.70;99.90
19928;DHT22;10126;50.876;4.470;2022-09-03T14:06:11;30.50;99.90
19928;DHT22;10126;50.876;4.470;2022-09-03T14:08:31;30.70;99.90
19928;DHT22;10126;50.876;4.470;2022-09-03T14:11:08;30.70;99.90
19928;DHT22;10126;50.876;4.470;2022-09-03T14:20:48;30.10;99.90
19928;DHT22;10126;50.876;4.470;2022-09-03T14:25:21;29.60;99.90
19928;DHT22;10126;50.876;4.470;2022-09-03T14:27:24;29.80;99.90
19928;DHT22;10126;50.876;4.470;2022-09-03T14:29:32;30.00;99.90
19928;DHT22;10126;50.876;4.470;2022-09-03T14:34:18;30.10;99.90
19928;DHT22;10126;50.876;4.470;2022-09-03T14:41:21;29.90;99.90
19928;DHT22;10126;50.876;4.470;2022-09-03T14:55:24;29.20;99.90
19928;DHT22;10126;50.876;4.470;2022-09-03T15:00:16;29.10;99.90
19928;DHT22;10126;50.876;4.470;2022-09-03T15:11:18;28.50;99.90
19928;DHT22;10126;50.876;4.470;2022-09-03T15:20:18;28.80;99.90
19928;DHT22;10126;50.876;4.470;2022-09-03T15:22:45;28.80;99.90
19928;DHT22;10126;50.876;4.470;2022-09-03T15:30:05;28.50;99.90
19928;DHT22;10126;50.876;4.470;2022-09-03T15:36:35;28.20;99.90
19928;DHT22;10126;50.876;4.470;2022-09-03T15:38:57;28.40;99.90
19928;DHT22;10126;50.876;4.470;2022-09-03T15:41:03;28.50;99.90
19928;DHT22;10126;50.876;4.470;2022-09-03T15:43:16;28.60;99.90
19928;DHT22;10126;50.876;4.470;2022-09-03T15:49:47;28.90;99.90
19928;DHT22;10126;50.876;4.470;2022-09-03T15:52:44;29.00;99.90
19928;DHT22;10126;50.876;4.470;2022-09-03T15:54:31;29.10;99.90
19928;DHT22;10126;50.876;4.470;2022-09-03T15:56:57;29.00;99.90
19928;DHT22;10126;50.876;4.470;2022-09-03T16:01:46;29.00;99.90
19928;DHT22;10126;50.876;4.470;2022-09-03T16:06:58;28.40;99.90
19928;DHT22;10126;50.876;4.470;2022-09-03T16:09:07;28.20;99.90
19928;DHT22;10126;50.876;4.470;2022-09-03T16:11:14;28.30;99.90
19928;DHT22;10126;50.876;4.470;2022-09-03T16:13:44;28.50;99.90
19928;DHT22;10126;50.876;4.470;2022-09-03T16:15:57;28.40;99.90
19928;DHT22;10126;50.876;4.470;2022-09-03T16:20:32;28.10;99.90
19928;DHT22;10126;50.876;4.470;2022-09-03T16:22:54;28.00;99.90